Flight Track Log - Related Links

Times and Time Zones

All times are in EST time to prevent confusion due to time zone crossing. See the CHQ5369 flight status page for this flight to view local times or setup timezone preferences in your user account.

Time Position Orientation Groundspeed Altitude Reporting Facility
EST Latitude Longitude Course Direction KTS MPH feet Rate Location/Type
Sat 07:19:11 AM 42.3086 -85.6058 257° West 231 266 4,600  Level Chicago Center
Sat 07:20:11 AM 42.2836 -85.6850 247° West 230 265 7,400 2,550 Climbing Chicago Center
Sat 07:21:11 AM 42.2586 -85.7622 246° West 227 261 9,700 1,300 Climbing Chicago Center
Sat 07:22:00 AM 42.1793 -85.8704 255° West  Level FlightAware Approximate
Sat 07:22:11 AM 42.2300 -85.8536 247° West 248 285 10,000  Level Chicago Center
Sat 07:23:00 AM 42.1621 -85.9564 255° West  Level FlightAware Approximate
Sat 07:23:12 AM 42.1947 -85.9664 247° West 290 334 10,000  Level Chicago Center
Sat 07:24:00 AM 42.1457 -86.0427 257° West  Level FlightAware Approximate
Sat 07:24:12 AM 42.1642 -86.0642 247° West 288 331 10,000  Level Chicago Center
Sat 07:25:12 AM 42.1433 -86.1661 255° West 294 338 10,000  Level Chicago Center
Sat 07:26:13 AM 42.1464 -86.2767 272° West 297 342 10,000  Level Chicago Center
Sat 07:27:13 AM 42.1489 -86.3875 272° West 297 342 10,000  Level Chicago Center
Sat 07:28:13 AM 42.1497 -86.4983 271° West 297 342 10,000 -50 Level Chicago Center
Sat 07:29:14 AM 42.1511 -86.6094 271° West 298 343 9,900 -248 Descending Chicago Center
Sat 07:30:14 AM 42.1511 -86.7078 270° West 258 297 9,500 -850 Descending Chicago Center
Sat 07:31:14 AM 42.1519 -86.7933 271° West 234 269 8,200 -744 Descending Chicago Center
Sat 07:32:15 AM 42.1531 -86.8767 271° West 225 259 8,000 -99 Descending Chicago Center
Sat 07:33:15 AM 42.1536 -86.9639 271° West 230 265 8,000  Level Chicago Center
Sat 07:34:15 AM 42.1606 -87.0467 276° West 238 274 8,000  Level Chicago Center
Sat 07:35:16 AM 42.1667 -87.1331 275° West 234 269 8,000  Level Chicago Center
Sat 07:36:16 AM 42.1731 -87.2214 276° West 235 270 8,000  Level Chicago Center
Sat 07:37:17 AM 42.1786 -87.3150 275° West 247 284 8,000  Level Chicago Center
Sat 07:38:17 AM 42.1864 -87.4289 275° West 253 291 8,000  Level Chicago Center
Sat 07:39:17 AM 42.1933 -87.5228 276° West 252 290 8,000  Level Chicago Center
Sat 07:40:18 AM 42.1992 -87.6158 275° West 251 289 8,000 -298 Level Chicago Center
Sat 07:41:18 AM 42.1756 -87.7000 249° West 241 277 7,400 -496 Descending Chicago Center
Sat 07:42:19 AM 42.1411 -87.7811 240° Southwest 248 285 7,000 -216 Descending Chicago Center
Sat 07:43:09 AM 42.1167 -87.8500 244° Southwest 237 273 7,000  Level Chicago TRACON
Sat 07:44:15 AM 42.0833 -87.9333 242° Southwest 232 267 7,000 -50 Level Chicago TRACON
Sat 07:45:09 AM 42.0667 -88.0000 251° West 225 259 6,900 -706 Descending Chicago TRACON
Sat 07:45:57 AM 42.0500 -88.0667 251° West 223 257 5,800 -1,471 Descending Chicago TRACON
Sat 07:46:51 AM 42.0500 -88.1333 270° West 221 254 4,400 -857 Descending Chicago TRACON
Sat 07:47:21 AM 42.0417 -88.1708 253° West 225 259 4,600 -533 Climbing Chicago Center
Sat 07:49:51 AM 41.9667 -88.0667 134° Southeast 177 204 2,800 -788 Descending Chicago TRACON
Sat 07:50:39 AM 41.9667 -88.0167 90° East 150 173 2,000 -783 Descending Chicago TRACON
Sat 07:51:46 AM 41.9667 -87.9667 90° East 124 143 1,300 -627 Descending Chicago TRACON

Login

Don't have an account? Register now (free) for customized features, flight alerts, and more!